createdAt,value
2022-09-05T00:02:54.696Z,99788.69
2022-09-05T00:06:02.516Z,99786.38
2022-09-05T00:09:00.399Z,99775.34
2022-09-05T00:11:54.338Z,99779.84
2022-09-05T00:15:17.219Z,99773.03
2022-09-05T00:21:48.221Z,99781.88
2022-09-05T00:24:19.195Z,99777.81
2022-09-05T00:25:33.921Z,99781.19
2022-09-05T00:28:32.003Z,99772.63
2022-09-05T00:31:53.644Z,99771.00
2022-09-05T00:35:13.491Z,99757.41
2022-09-05T00:38:14.786Z,99763.50
2022-09-05T00:41:06.359Z,99761.63
2022-09-05T00:43:54.401Z,99758.19
2022-09-05T00:46:52.122Z,99767.59
2022-09-05T00:49:46.530Z,99768.53
2022-09-05T00:52:42.295Z,99765.16
2022-09-05T00:55:50.853Z,99759.28
2022-09-05T00:59:03.336Z,99769.94
2022-09-05T01:02:00.098Z,99759.56
2022-09-05T01:04:54.822Z,99759.56
2022-09-05T01:07:58.639Z,99754.53
2022-09-05T01:10:53.568Z,99750.31
2022-09-05T01:13:54.572Z,99747.88
2022-09-05T01:17:05.788Z,99744.59
2022-09-05T01:20:20.143Z,99746.53
2022-09-05T01:23:47.726Z,99752.22
2022-09-05T01:26:59.426Z,99743.81
2022-09-05T01:29:54.421Z,99743.97
2022-09-05T01:32:56.806Z,99745.72
2022-09-05T01:36:31.580Z,99742.47
2022-09-05T01:40:11.778Z,99751.16
2022-09-05T01:42:44.382Z,99752.81
2022-09-05T01:45:49.422Z,99747.63
2022-09-05T01:48:51.525Z,99743.25
2022-09-05T01:51:55.908Z,99744.09
2022-09-05T01:55:01.263Z,99745.19
2022-09-05T01:57:55.830Z,99736.44
2022-09-05T02:01:25.311Z,99725.31
2022-09-05T02:04:55.697Z,99730.75
2022-09-05T02:08:10.451Z,99723.16
2022-09-05T02:11:06.677Z,99714.56
2022-09-05T02:14:02.036Z,99720.69
2022-09-05T02:16:52.137Z,99725.72
2022-09-05T02:19:47.593Z,99729.41
2022-09-05T02:22:44.982Z,99726.13
2022-09-05T02:26:01.964Z,99737.31
2022-09-05T02:28:57.382Z,99718.50
2022-09-05T02:31:52.063Z,99721.25
2022-09-05T02:34:49.000Z,99715.28
2022-09-05T02:39:25.611Z,99716.22
2022-09-05T02:45:03.908Z,99721.53
2022-09-05T02:45:20.115Z,99714.97
2022-09-05T02:47:25.241Z,99720.28
2022-09-05T02:53:13.811Z,99713.63
2022-09-05T02:57:29.017Z,99721.22
2022-09-05T02:57:40.794Z,99719.59
2022-09-05T03:00:21.452Z,99714.56
2022-09-05T03:03:27.986Z,99720.66
2022-09-05T03:06:34.878Z,99718.09
2022-09-05T03:09:37.948Z,99716.59
2022-09-05T03:12:59.315Z,99714.16
2022-09-05T03:16:47.530Z,99722.84
2022-09-05T03:20:27.470Z,99723.94
2022-09-05T03:23:43.152Z,99724.75
2022-09-05T03:27:16.849Z,99722.97
2022-09-05T03:30:15.519Z,99722.19
2022-09-05T03:33:45.997Z,99720.53
2022-09-05T03:37:27.943Z,99725.03
2022-09-05T03:40:39.822Z,99719.88
2022-09-05T03:44:05.895Z,99729.53
2022-09-05T03:47:41.620Z,99727.22
2022-09-05T03:57:08.118Z,99730.75
2022-09-05T03:57:16.236Z,99722.56
2022-09-05T03:58:58.073Z,99720.28
2022-09-05T04:04:30.462Z,99721.22
2022-09-05T04:08:20.671Z,99724.63
2022-09-05T04:08:40.789Z,99722.84
2022-09-05T04:11:37.671Z,99729.66
2022-09-05T04:14:35.926Z,99726.09
2022-09-05T04:17:33.863Z,99726.25
2022-09-05T04:20:39.726Z,99731.41
2022-09-05T04:23:35.669Z,99737.56
2022-09-05T04:26:44.616Z,99734.28
2022-09-05T04:29:48.853Z,99736.19
2022-09-05T04:32:54.567Z,99741.34
2022-09-05T04:35:55.869Z,99740.38
2022-09-05T04:38:45.744Z,99742.03
2022-09-05T04:41:39.849Z,99744.59
2022-09-05T04:44:31.976Z,99751.56
2022-09-05T04:47:25.068Z,99748.97
2022-09-05T04:50:18.671Z,99750.84
2022-09-05T04:53:21.205Z,99747.34
2022-09-05T04:56:14.892Z,99754.16
2022-09-05T05:01:08.262Z,99748.97
2022-09-05T05:06:18.701Z,99748.13
2022-09-05T05:06:31.670Z,99752.63
2022-09-05T05:09:18.927Z,99760.53
2022-09-05T05:17:53.807Z,99759.84
2022-09-05T05:18:10.906Z,99765.00
2022-09-05T05:18:57.824Z,99755.59
2022-09-05T05:21:52.491Z,99770.16
2022-09-05T05:24:46.639Z,99766.38
2022-09-05T05:27:43.182Z,99759.31
2022-09-05T05:30:34.136Z,99764.19
2022-09-05T05:33:29.321Z,99760.66
2022-09-05T05:36:23.853Z,99766.66
2022-09-05T05:39:16.358Z,99765.84
2022-09-05T05:42:20.038Z,99776.19
2022-09-05T05:45:19.509Z,99772.75
2022-09-05T05:48:14.813Z,99773.59
2022-09-05T05:51:34.586Z,99775.19
2022-09-05T05:54:49.344Z,99764.63
2022-09-05T05:58:16.171Z,99773.72
2022-09-05T06:01:49.705Z,99774.41
2022-09-05T06:05:21.527Z,99776.03
2022-09-05T06:14:42.748Z,99772.66
2022-09-05T06:15:00.482Z,99782.16
2022-09-05T06:17:11.771Z,99771.00
2022-09-05T06:22:04.960Z,99781.75
2022-09-05T06:24:28.053Z,99781.34
2022-09-05T06:28:17.627Z,99785.44
2022-09-05T06:31:29.838Z,99780.13
2022-09-05T06:34:41.233Z,99789.25
2022-09-05T06:37:42.832Z,99785.47
2022-09-05T06:40:37.718Z,99776.47
2022-09-05T06:43:53.715Z,99791.47
2022-09-05T06:47:22.949Z,99801.25
2022-09-05T06:50:26.756Z,99794.72
2022-09-05T06:54:08.060Z,99786.56
2022-09-05T06:57:23.147Z,99792.81
2022-09-05T07:00:22.526Z,99791.56
2022-09-05T07:03:30.606Z,99793.63
2022-09-05T07:06:49.465Z,99796.59
2022-09-05T07:09:54.403Z,99797.97
2022-09-05T07:12:49.588Z,99792.22
2022-09-05T07:15:51.022Z,99786.50
2022-09-05T07:18:50.675Z,99784.41
2022-09-05T07:21:46.654Z,99793.44
2022-09-05T07:24:54.689Z,99793.97
2022-09-05T07:28:26.314Z,99796.00
2022-09-05T07:31:05.539Z,99794.63
2022-09-05T07:34:20.763Z,99787.25
2022-09-05T07:37:14.932Z,99802.91
2022-09-05T07:40:25.135Z,99799.72
2022-09-05T07:43:18.982Z,99805.16
2022-09-05T07:46:14.410Z,99801.06
2022-09-05T07:49:05.768Z,99802.09
2022-09-05T07:56:55.104Z,99798.91
2022-09-05T07:57:08.833Z,99806.78
2022-09-05T07:58:41.857Z,99806.09
2022-09-05T08:01:29.050Z,99799.53
2022-09-05T08:04:28.148Z,99804.13
2022-09-05T08:07:47.423Z,99803.53
2022-09-05T08:10:35.713Z,99800.53
2022-09-05T08:14:02.356Z,99804.44
2022-09-05T08:17:08.689Z,99795.41
2022-09-05T08:20:11.016Z,99796.75
2022-09-05T08:23:07.750Z,99795.50
2022-09-05T08:26:01.243Z,99801.34
2022-09-05T08:28:59.381Z,99792.59
2022-09-05T08:31:52.678Z,99797.47
2022-09-05T08:34:45.783Z,99792.97
2022-09-05T08:37:34.171Z,99791.03
2022-09-05T08:40:35.711Z,99793.19
2022-09-05T08:46:02.049Z,99789.66
2022-09-05T08:46:51.157Z,99790.44
2022-09-05T08:49:59.058Z,99780.09
2022-09-05T08:52:57.644Z,99779.13
2022-09-05T08:55:55.294Z,99775.56
2022-09-05T08:59:32.242Z,99777.03
2022-09-05T09:02:47.051Z,99772.00
2022-09-05T09:06:15.920Z,99779.78
2022-09-05T09:09:16.596Z,99768.44
2022-09-05T09:12:15.030Z,99767.19
2022-09-05T09:15:05.884Z,99775.50
2022-09-05T09:17:55.522Z,99765.59
2022-09-05T09:20:52.846Z,99762.91
2022-09-05T09:23:49.910Z,99763.56
2022-09-05T09:26:44.080Z,99765.06
2022-09-05T09:29:35.751Z,99763.94
2022-09-05T09:32:25.530Z,99768.97
2022-09-05T09:35:23.556Z,99770.28
2022-09-05T09:38:40.846Z,99775.50
2022-09-05T09:41:45.397Z,99768.38
2022-09-05T09:45:28.608Z,99772.59
2022-09-05T09:48:56.142Z,99772.75
2022-09-05T09:52:06.774Z,99769.19
2022-09-05T09:55:57.104Z,99768.38
2022-09-05T09:59:08.681Z,99767.13
2022-09-05T10:03:25.404Z,99767.44
2022-09-05T10:10:48.191Z,99754.84
2022-09-05T10:10:50.232Z,99756.78
2022-09-05T10:13:19.566Z,99759.72
2022-09-05T10:16:53.990Z,99752.66
2022-09-05T10:20:29.184Z,99750.84
2022-09-05T10:23:58.541Z,99740.94
2022-09-05T10:27:26.854Z,99746.66
2022-09-05T10:30:31.936Z,99746.88
2022-09-05T10:35:17.697Z,99753.13
2022-09-05T10:36:54.662Z,99740.13
2022-09-05T10:39:47.091Z,99740.66
2022-09-05T10:43:00.204Z,99733.81
2022-09-05T10:45:58.034Z,99734.09
2022-09-05T10:48:53.299Z,99730.06
2022-09-05T10:51:52.051Z,99729.72
2022-09-05T10:55:14.624Z,99719.16
2022-09-05T10:58:23.493Z,99715.56
2022-09-05T11:02:27.084Z,99706.56
2022-09-05T11:04:52.626Z,99703.66
2022-09-05T11:07:44.244Z,99703.97
2022-09-05T11:10:37.747Z,99694.22
2022-09-05T11:13:44.439Z,99697.94
2022-09-05T11:16:40.394Z,99693.72
2022-09-05T11:19:38.406Z,99688.00
2022-09-05T11:22:29.109Z,99684.59
2022-09-05T11:25:39.828Z,99691.28
2022-09-05T11:28:49.377Z,99683.00
2022-09-05T11:36:06.900Z,99681.88
2022-09-05T11:39:50.314Z,99686.75
2022-09-05T11:40:06.079Z,99678.81
2022-09-05T11:42:37.524Z,99669.72
2022-09-05T11:46:12.253Z,99657.84
2022-09-05T11:49:41.068Z,99664.34
2022-09-05T11:53:08.511Z,99664.03
2022-09-05T11:56:45.383Z,99669.22
2022-09-05T12:00:33.795Z,99663.56
2022-09-05T12:03:59.280Z,99657.53
2022-09-05T12:07:29.815Z,99650.69
2022-09-05T12:10:46.863Z,99641.94
2022-09-05T12:13:48.305Z,99650.09
2022-09-05T12:16:56.742Z,99646.34
2022-09-05T12:19:59.014Z,99647.81
2022-09-05T12:22:54.710Z,99638.06
2022-09-05T12:27:41.542Z,99640.66
2022-09-05T12:29:28.902Z,99631.25
2022-09-05T12:35:49.996Z,99620.69
2022-09-05T12:36:12.660Z,99634.66
2022-09-05T12:40:59.350Z,99626.34
2022-09-05T12:42:14.565Z,99629.94
2022-09-05T12:45:16.816Z,99623.94
2022-09-05T12:48:14.424Z,99622.44
2022-09-05T12:51:07.996Z,99627.00
2022-09-05T12:54:00.609Z,99618.38
2022-09-05T13:01:33.332Z,99617.56
2022-09-05T13:03:00.957Z,99607.97
2022-09-05T13:03:30.033Z,99617.56
2022-09-05T13:06:35.450Z,99608.81
2022-09-05T13:09:30.793Z,99602.78
2022-09-05T13:14:58.897Z,99600.34
2022-09-05T13:15:51.284Z,99588.63
2022-09-05T13:18:42.850Z,99596.44
2022-09-05T13:21:33.109Z,99595.47
2022-09-05T13:24:30.792Z,99587.66
2022-09-05T13:27:23.535Z,99589.13
2022-09-05T13:33:40.151Z,99585.69
2022-09-05T13:37:59.534Z,99588.63
2022-09-05T13:38:01.200Z,99591.56
2022-09-05T13:39:34.879Z,99587.69
2022-09-05T13:42:04.499Z,99584.75
2022-09-05T13:44:43.216Z,99588.66
2022-09-05T13:47:29.995Z,99588.66
2022-09-05T13:50:22.441Z,99587.69
2022-09-05T13:53:02.308Z,99583.16
2022-09-05T13:55:40.543Z,99567.22
2022-09-05T13:58:17.335Z,99573.06
2022-09-05T14:01:35.226Z,99568.03
2022-09-05T14:05:06.666Z,99560.22
2022-09-05T14:09:35.193Z,99567.56
2022-09-05T14:12:11.445Z,99561.34
2022-09-05T14:18:20.453Z,99563.31
2022-09-05T14:21:14.193Z,99561.34
2022-09-05T14:23:56.313Z,99562.97
2022-09-05T14:26:31.713Z,99556.81
2022-09-05T14:29:15.163Z,99559.41
2022-09-05T14:37:41.623Z,99552.91
2022-09-05T14:37:46.746Z,99557.78
2022-09-05T14:38:15.909Z,99550.16
2022-09-05T14:41:35.465Z,99546.88
2022-09-05T14:44:27.624Z,99540.25
2022-09-05T14:47:35.126Z,99548.19
2022-09-05T14:50:30.383Z,99544.78
2022-09-05T14:57:23.723Z,99542.84
2022-09-05T15:02:49.220Z,99538.63
2022-09-05T15:02:56.587Z,99541.22
2022-09-05T15:04:58.136Z,99541.22
2022-09-05T15:07:36.200Z,99532.44
2022-09-05T15:12:14.090Z,99526.91
2022-09-05T15:13:19.582Z,99524.31
2022-09-05T15:16:00.690Z,99517.31
2022-09-05T15:18:36.556Z,99518.94
2022-09-05T15:21:33.986Z,99516.16
2022-09-05T15:24:17.222Z,99514.53
2022-09-05T15:26:52.758Z,99513.56
2022-09-05T15:29:25.734Z,99505.75
2022-09-05T15:32:14.995Z,99507.88
2022-09-05T15:34:44.348Z,99502.03
2022-09-05T15:37:28.582Z,99498.66
2022-09-05T15:40:22.482Z,99492.44
2022-09-05T15:42:55.796Z,99499.28
2022-09-05T15:45:29.135Z,99485.31
2022-09-05T15:48:19.149Z,99497.34
2022-09-05T15:50:51.498Z,99487.91
2022-09-05T15:53:28.968Z,99483.69
2022-09-05T15:56:05.106Z,99481.72
2022-09-05T15:58:53.921Z,99479.13
2022-09-05T16:01:58.604Z,99477.50
2022-09-05T16:08:38.217Z,99474.25
2022-09-05T16:10:39.496Z,99468.25
2022-09-05T16:10:57.855Z,99474.59
2022-09-05T16:13:14.133Z,99471.19
2022-09-05T16:21:05.329Z,99465.97
2022-09-05T16:23:26.020Z,99465.50
2022-09-05T16:23:29.890Z,99466.16
2022-09-05T16:24:35.001Z,99471.66
2022-09-05T16:27:43.918Z,99462.41
2022-09-05T16:30:24.398Z,99456.25
2022-09-05T16:33:01.599Z,99458.03
2022-09-05T16:40:55.469Z,99457.38
2022-09-05T16:43:28.209Z,99452.00
2022-09-05T16:46:02.001Z,99446.97
2022-09-05T16:48:45.510Z,99444.56
2022-09-05T16:51:35.733Z,99443.75
2022-09-05T16:54:14.140Z,99443.06
2022-09-05T16:56:48.682Z,99435.25
2022-09-05T16:59:21.310Z,99440.47
2022-09-05T17:02:08.061Z,99436.22
2022-09-05T17:05:04.537Z,99442.25
2022-09-05T17:07:59.206Z,99440.00
2022-09-05T17:10:34.653Z,99433.97
2022-09-05T17:13:04.549Z,99423.56
2022-09-05T17:15:37.011Z,99433.00
2022-09-05T17:18:22.028Z,99433.97
2022-09-05T17:20:56.964Z,99433.97
2022-09-05T17:29:08.692Z,99433.19
2022-09-05T17:29:28.939Z,99433.34
2022-09-05T17:31:23.784Z,99425.72
2022-09-05T17:32:48.343Z,99433.66
2022-09-05T17:35:42.547Z,99432.69
2022-09-05T17:39:05.422Z,99438.22
2022-09-05T17:42:12.048Z,99431.41
2022-09-05T17:44:53.442Z,99433.03
2022-09-05T17:47:35.536Z,99427.81
2022-09-05T17:50:17.387Z,99430.59
2022-09-05T17:53:26.022Z,99436.75
2022-09-05T17:56:33.290Z,99436.94
2022-09-05T17:59:07.520Z,99445.69
2022-09-05T18:01:37.090Z,99439.69
2022-09-05T18:04:17.913Z,99441.31
2022-09-05T18:06:59.308Z,99440.84
2022-09-05T18:10:12.334Z,99442.78
2022-09-05T18:13:31.735Z,99443.78
2022-09-05T18:16:12.587Z,99443.44
2022-09-05T18:19:31.899Z,99447.03
2022-09-05T18:21:51.914Z,99455.16
2022-09-05T18:27:43.808Z,99463.41
2022-09-05T18:30:33.151Z,99461.81
2022-09-05T18:33:55.947Z,99474.94
2022-09-05T18:36:35.088Z,99470.25
2022-09-05T18:39:42.711Z,99484.53
2022-09-05T18:42:33.650Z,99482.13
2022-09-05T18:45:14.757Z,99491.03
2022-09-05T18:47:52.795Z,99486.97
2022-09-05T18:50:32.964Z,99491.53
2022-09-05T18:53:10.410Z,99495.25
2022-09-05T18:56:12.957Z,99493.97
2022-09-05T18:58:54.313Z,99491.66
2022-09-05T19:01:38.321Z,99500.56
2022-09-05T19:04:33.135Z,99492.13
2022-09-05T19:07:09.754Z,99494.22
2022-09-05T19:09:41.464Z,99495.34
2022-09-05T19:12:33.259Z,99486.94
2022-09-05T19:15:08.738Z,99492.47
2022-09-05T19:17:46.942Z,99491.78
2022-09-05T19:20:32.594Z,99488.56
2022-09-05T19:23:11.301Z,99492.28
2022-09-05T19:25:44.401Z,99486.25
2022-09-05T19:36:46.371Z,99482.19
2022-09-05T19:36:57.701Z,99480.09
2022-09-05T19:37:22.853Z,99489.97
2022-09-05T19:41:36.806Z,99470.66
2022-09-05T19:47:33.735Z,99481.38
2022-09-05T19:47:43.859Z,99475.50
2022-09-05T19:48:28.670Z,99475.84
2022-09-05T19:50:59.000Z,99474.03
2022-09-05T19:53:27.898Z,99474.19
2022-09-05T19:55:58.244Z,99474.19
2022-09-05T19:58:27.177Z,99467.41
2022-09-05T20:01:08.347Z,99467.53
2022-09-05T20:03:43.410Z,99460.91
2022-09-05T20:06:29.828Z,99462.84
2022-09-05T20:09:14.834Z,99460.56
2022-09-05T20:11:50.583Z,99455.69
2022-09-05T20:14:24.234Z,99458.59
2022-09-05T20:16:57.173Z,99457.97
2022-09-05T20:19:30.729Z,99449.50
2022-09-05T20:22:14.328Z,99460.84
2022-09-05T20:24:54.262Z,99453.34
2022-09-05T20:27:28.209Z,99458.53
2022-09-05T20:30:00.280Z,99455.31
2022-09-05T20:32:39.428Z,99455.47
2022-09-05T20:37:38.839Z,99459.19
2022-09-05T20:43:17.275Z,99455.91
2022-09-05T20:43:24.928Z,99448.63
2022-09-05T20:44:00.245Z,99459.16
2022-09-05T20:50:44.437Z,99455.72
2022-09-05T20:54:16.436Z,99457.03
2022-09-05T20:54:17.605Z,99451.66
2022-09-05T20:55:41.425Z,99458.28
2022-09-05T20:58:14.270Z,99461.06
2022-09-05T21:01:20.566Z,99466.25
2022-09-05T21:03:45.269Z,99471.75
2022-09-05T21:06:23.625Z,99465.88
2022-09-05T21:08:56.028Z,99468.00
2022-09-05T21:11:34.103Z,99462.94
2022-09-05T21:14:05.385Z,99465.53
2022-09-05T21:16:45.651Z,99462.31
2022-09-05T21:19:30.841Z,99467.47
2022-09-05T21:22:09.238Z,99475.41
2022-09-05T21:24:38.228Z,99476.38
2022-09-05T21:27:19.056Z,99470.53
2022-09-05T21:29:48.264Z,99481.06
2022-09-05T21:32:37.890Z,99478.78
2022-09-05T21:35:33.526Z,99475.53
2022-09-05T21:37:57.726Z,99465.47
2022-09-05T21:40:26.590Z,99468.88
2022-09-05T21:47:40.764Z,99452.81
2022-09-05T21:47:44.485Z,99459.13
2022-09-05T21:48:38.632Z,99457.47
2022-09-05T21:51:10.631Z,99449.88
2022-09-05T21:56:33.181Z,99444.84
2022-09-05T21:59:33.205Z,99445.81
2022-09-05T21:59:41.519Z,99433.97
2022-09-05T22:02:16.884Z,99440.94
2022-09-05T22:04:47.632Z,99438.50
2022-09-05T22:07:27.369Z,99443.84
2022-09-05T22:10:01.785Z,99446.59
2022-09-05T22:12:35.916Z,99447.38
2022-09-05T22:15:28.004Z,99440.56
2022-09-05T22:18:16.106Z,99433.75
2022-09-05T22:21:32.641Z,99438.25
2022-09-05T22:23:44.383Z,99438.59
2022-09-05T22:26:13.619Z,99428.38
2022-09-05T22:28:48.928Z,99420.59
2022-09-05T22:31:18.542Z,99412.00
2022-09-05T22:33:50.946Z,99412.97
2022-09-05T22:36:21.847Z,99416.53
2022-09-05T22:38:50.568Z,99418.28
2022-09-05T22:41:19.445Z,99407.13
2022-09-05T22:43:59.038Z,99413.28
2022-09-05T22:46:27.990Z,99402.28
2022-09-05T22:48:56.812Z,99410.19
2022-09-05T22:51:26.896Z,99404.34
2022-09-05T22:53:59.208Z,99408.72
2022-09-05T22:56:32.906Z,99406.13
2022-09-05T22:59:01.864Z,99409.69
2022-09-05T23:01:30.565Z,99414.84
2022-09-05T23:03:59.591Z,99414.03
2022-09-05T23:06:29.702Z,99417.59
2022-09-05T23:08:58.524Z,99413.38
2022-09-05T23:11:27.428Z,99407.53
2022-09-05T23:13:56.116Z,99412.72
2022-09-05T23:16:24.809Z,99411.91
2022-09-05T23:18:53.599Z,99411.09
2022-09-05T23:21:22.532Z,99410.28
2022-09-05T23:23:52.653Z,99401.72
2022-09-05T23:26:22.162Z,99404.44
2022-09-05T23:28:50.824Z,99402.66
2022-09-05T23:31:19.737Z,99410.44
2022-09-05T23:33:48.470Z,99409.47
2022-09-05T23:36:17.164Z,99401.03
2022-09-05T23:38:46.018Z,99410.75
2022-09-05T23:41:17.126Z,99403.78
2022-09-05T23:43:45.850Z,99406.53
2022-09-05T23:46:14.754Z,99409.94
2022-09-05T23:48:43.469Z,99410.91
2022-09-05T23:51:14.167Z,99406.53
2022-09-05T23:53:42.944Z,99404.09
2022-09-05T23:56:12.930Z,99402.47
2022-09-05T23:58:43.002Z,99403.56
